28°C Temp
24°C Dewpoint
79% Humidity
Temperature
11 KM/H
7 MPH
6 KTS
70°
East North
East

Wind Speed
Clear
Conditions
Pressure 1014.92 (hPa) - 29.97 (in)
Visibility 6.2 (mi) - 10.0 (km)

Current Conditions
LIPR
Location 4(km)
Metar :LIPR 121350Z AUTO 07006KT 030V100 9999 NCD 28/24 Q1015
Wed 12th August 15:50 pm

Airport
  Metar Aviation API Data Provided by https://www.checkwx.com/ PHP scripts by weather34.com ©2020